sensor_id;sensor_type;location;lat;lon;timestamp;P1;durP1;ratioP1;P2;durP2;ratioP2
33162;SDS011;29282;45.656;11.302;2022-11-09T00:02:18;9.43;;;5.53;;
33162;SDS011;29282;45.656;11.302;2022-11-09T00:04:44;9.73;;;5.55;;
33162;SDS011;29282;45.656;11.302;2022-11-09T00:07:09;10.55;;;5.53;;
33162;SDS011;29282;45.656;11.302;2022-11-09T00:09:35;8.23;;;5.03;;
33162;SDS011;29282;45.656;11.302;2022-11-09T00:12:00;9.68;;;5.35;;
33162;SDS011;29282;45.656;11.302;2022-11-09T00:14:29;11.20;;;5.30;;
33162;SDS011;29282;45.656;11.302;2022-11-09T00:16:55;7.75;;;5.30;;
33162;SDS011;29282;45.656;11.302;2022-11-09T00:19:21;7.65;;;4.25;;
33162;SDS011;29282;45.656;11.302;2022-11-09T00:21:47;9.73;;;5.15;;
33162;SDS011;29282;45.656;11.302;2022-11-09T00:24:12;8.10;;;5.03;;
33162;SDS011;29282;45.656;11.302;2022-11-09T00:26:38;8.90;;;5.45;;
33162;SDS011;29282;45.656;11.302;2022-11-09T00:29:03;6.95;;;4.63;;
33162;SDS011;29282;45.656;11.302;2022-11-09T00:31:29;8.98;;;4.93;;
33162;SDS011;29282;45.656;11.302;2022-11-09T00:33:55;8.00;;;4.80;;
33162;SDS011;29282;45.656;11.302;2022-11-09T00:36:22;9.18;;;5.53;;
33162;SDS011;29282;45.656;11.302;2022-11-09T00:38:51;8.38;;;4.47;;
33162;SDS011;29282;45.656;11.302;2022-11-09T00:41:18;8.88;;;5.05;;
33162;SDS011;29282;45.656;11.302;2022-11-09T00:43:44;7.00;;;4.53;;
33162;SDS011;29282;45.656;11.302;2022-11-09T00:46:10;7.57;;;4.57;;
33162;SDS011;29282;45.656;11.302;2022-11-09T00:48:36;9.52;;;4.68;;
33162;SDS011;29282;45.656;11.302;2022-11-09T00:51:02;6.78;;;4.85;;
33162;SDS011;29282;45.656;11.302;2022-11-09T00:53:28;9.77;;;5.18;;
33162;SDS011;29282;45.656;11.302;2022-11-09T00:58:25;6.93;;;4.90;;
33162;SDS011;29282;45.656;11.302;2022-11-09T01:00:52;6.95;;;5.05;;
33162;SDS011;29282;45.656;11.302;2022-11-09T01:03:18;7.93;;;4.57;;
33162;SDS011;29282;45.656;11.302;2022-11-09T01:05:44;7.30;;;4.78;;
33162;SDS011;29282;45.656;11.302;2022-11-09T01:08:09;9.93;;;5.10;;
33162;SDS011;29282;45.656;11.302;2022-11-09T01:10:39;5.93;;;4.63;;
33162;SDS011;29282;45.656;11.302;2022-11-09T01:13:06;7.63;;;4.40;;
33162;SDS011;29282;45.656;11.302;2022-11-09T01:15:32;6.22;;;4.63;;
33162;SDS011;29282;45.656;11.302;2022-11-09T01:17:57;5.80;;;4.53;;
33162;SDS011;29282;45.656;11.302;2022-11-09T01:20:23;7.15;;;4.45;;
33162;SDS011;29282;45.656;11.302;2022-11-09T01:22:49;7.35;;;4.70;;
33162;SDS011;29282;45.656;11.302;2022-11-09T01:25:14;7.97;;;4.97;;
33162;SDS011;29282;45.656;11.302;2022-11-09T01:27:40;6.18;;;4.57;;
33162;SDS011;29282;45.656;11.302;2022-11-09T01:30:05;5.03;;;4.38;;
33162;SDS011;29282;45.656;11.302;2022-11-09T01:32:31;5.85;;;4.38;;
33162;SDS011;29282;45.656;11.302;2022-11-09T01:34:57;6.40;;;4.72;;
33162;SDS011;29282;45.656;11.302;2022-11-09T01:37:22;6.72;;;4.95;;
33162;SDS011;29282;45.656;11.302;2022-11-09T01:39:48;6.43;;;4.57;;
33162;SDS011;29282;45.656;11.302;2022-11-09T01:42:13;7.55;;;5.00;;
33162;SDS011;29282;45.656;11.302;2022-11-09T01:44:39;7.18;;;4.45;;
33162;SDS011;29282;45.656;11.302;2022-11-09T01:47:26;7.10;;;4.45;;
33162;SDS011;29282;45.656;11.302;2022-11-09T01:49:55;6.55;;;4.40;;
33162;SDS011;29282;45.656;11.302;2022-11-09T01:52:33;5.90;;;4.35;;
33162;SDS011;29282;45.656;11.302;2022-11-09T01:55:03;6.80;;;4.47;;
33162;SDS011;29282;45.656;11.302;2022-11-09T01:58:14;6.40;;;4.32;;
33162;SDS011;29282;45.656;11.302;2022-11-09T02:00:23;8.65;;;4.43;;
33162;SDS011;29282;45.656;11.302;2022-11-09T02:02:50;5.93;;;4.22;;
33162;SDS011;29282;45.656;11.302;2022-11-09T02:05:20;7.13;;;4.30;;
33162;SDS011;29282;45.656;11.302;2022-11-09T02:07:48;8.15;;;4.70;;
33162;SDS011;29282;45.656;11.302;2022-11-09T02:15:14;7.43;;;4.35;;
33162;SDS011;29282;45.656;11.302;2022-11-09T02:17:40;7.00;;;4.47;;
33162;SDS011;29282;45.656;11.302;2022-11-09T02:20:16;7.32;;;4.20;;
33162;SDS011;29282;45.656;11.302;2022-11-09T02:22:42;6.60;;;4.30;;
33162;SDS011;29282;45.656;11.302;2022-11-09T02:25:08;5.68;;;3.90;;
33162;SDS011;29282;45.656;11.302;2022-11-09T02:27:34;7.80;;;4.40;;
33162;SDS011;29282;45.656;11.302;2022-11-09T02:30:00;7.30;;;4.00;;
33162;SDS011;29282;45.656;11.302;2022-11-09T02:32:28;6.10;;;4.07;;
33162;SDS011;29282;45.656;11.302;2022-11-09T02:34:54;6.10;;;4.45;;
33162;SDS011;29282;45.656;11.302;2022-11-09T02:37:31;7.07;;;4.78;;
33162;SDS011;29282;45.656;11.302;2022-11-09T02:40:00;5.80;;;3.88;;
33162;SDS011;29282;45.656;11.302;2022-11-09T02:42:28;5.70;;;3.92;;
33162;SDS011;29282;45.656;11.302;2022-11-09T02:44:55;9.60;;;4.35;;
33162;SDS011;29282;45.656;11.302;2022-11-09T02:47:23;7.72;;;4.13;;
33162;SDS011;29282;45.656;11.302;2022-11-09T02:49:49;5.45;;;3.90;;
33162;SDS011;29282;45.656;11.302;2022-11-09T02:52:15;5.90;;;4.00;;
33162;SDS011;29282;45.656;11.302;2022-11-09T02:54:41;5.93;;;3.88;;
33162;SDS011;29282;45.656;11.302;2022-11-09T02:57:07;7.15;;;3.72;;
33162;SDS011;29282;45.656;11.302;2022-11-09T02:59:32;6.00;;;3.97;;
33162;SDS011;29282;45.656;11.302;2022-11-09T03:01:58;5.15;;;3.88;;
33162;SDS011;29282;45.656;11.302;2022-11-09T03:04:23;7.80;;;4.10;;
33162;SDS011;29282;45.656;11.302;2022-11-09T03:06:49;5.82;;;4.35;;
33162;SDS011;29282;45.656;11.302;2022-11-09T03:09:17;5.57;;;4.00;;
33162;SDS011;29282;45.656;11.302;2022-11-09T03:11:43;5.63;;;4.15;;
33162;SDS011;29282;45.656;11.302;2022-11-09T03:14:09;6.05;;;4.40;;
33162;SDS011;29282;45.656;11.302;2022-11-09T03:16:35;6.25;;;3.85;;
33162;SDS011;29282;45.656;11.302;2022-11-09T03:19:02;4.85;;;3.95;;
33162;SDS011;29282;45.656;11.302;2022-11-09T03:21:27;6.75;;;3.97;;
33162;SDS011;29282;45.656;11.302;2022-11-09T03:23:53;7.25;;;4.13;;
33162;SDS011;29282;45.656;11.302;2022-11-09T03:26:19;5.57;;;4.05;;
33162;SDS011;29282;45.656;11.302;2022-11-09T03:28:45;4.85;;;3.47;;
33162;SDS011;29282;45.656;11.302;2022-11-09T03:31:10;7.00;;;3.97;;
33162;SDS011;29282;45.656;11.302;2022-11-09T03:33:36;5.80;;;4.15;;
33162;SDS011;29282;45.656;11.302;2022-11-09T03:36:02;5.00;;;3.95;;
33162;SDS011;29282;45.656;11.302;2022-11-09T03:38:28;6.78;;;3.80;;
33162;SDS011;29282;45.656;11.302;2022-11-09T03:40:53;6.57;;;4.10;;
33162;SDS011;29282;45.656;11.302;2022-11-09T03:43:19;6.47;;;3.95;;
33162;SDS011;29282;45.656;11.302;2022-11-09T03:45:46;6.63;;;4.30;;
33162;SDS011;29282;45.656;11.302;2022-11-09T03:48:11;4.78;;;3.92;;
33162;SDS011;29282;45.656;11.302;2022-11-09T03:50:37;6.47;;;3.83;;
33162;SDS011;29282;45.656;11.302;2022-11-09T03:53:05;5.43;;;3.60;;
33162;SDS011;29282;45.656;11.302;2022-11-09T03:55:34;4.55;;;3.45;;
33162;SDS011;29282;45.656;11.302;2022-11-09T03:58:04;5.70;;;4.03;;
33162;SDS011;29282;45.656;11.302;2022-11-09T04:00:30;4.60;;;3.58;;
33162;SDS011;29282;45.656;11.302;2022-11-09T04:02:57;5.15;;;3.63;;
33162;SDS011;29282;45.656;11.302;2022-11-09T04:05:23;4.75;;;3.13;;
33162;SDS011;29282;45.656;11.302;2022-11-09T04:07:54;6.97;;;4.40;;
33162;SDS011;29282;45.656;11.302;2022-11-09T04:10:21;5.43;;;3.58;;
33162;SDS011;29282;45.656;11.302;2022-11-09T04:12:48;4.82;;;3.65;;
33162;SDS011;29282;45.656;11.302;2022-11-09T04:15:14;4.53;;;3.53;;
33162;SDS011;29282;45.656;11.302;2022-11-09T04:17:40;4.43;;;3.78;;
33162;SDS011;29282;45.656;11.302;2022-11-09T04:20:08;4.90;;;3.72;;
33162;SDS011;29282;45.656;11.302;2022-11-09T04:22:35;4.93;;;3.63;;
33162;SDS011;29282;45.656;11.302;2022-11-09T04:25:00;4.85;;;3.65;;
33162;SDS011;29282;45.656;11.302;2022-11-09T04:27:26;3.85;;;3.30;;
33162;SDS011;29282;45.656;11.302;2022-11-09T04:29:53;4.78;;;3.60;;
33162;SDS011;29282;45.656;11.302;2022-11-09T04:32:19;4.78;;;3.60;;
33162;SDS011;29282;45.656;11.302;2022-11-09T04:34:44;4.22;;;3.35;;
33162;SDS011;29282;45.656;11.302;2022-11-09T04:37:10;5.25;;;3.67;;
33162;SDS011;29282;45.656;11.302;2022-11-09T04:39:35;5.30;;;3.63;;
33162;SDS011;29282;45.656;11.302;2022-11-09T04:42:01;4.75;;;3.70;;
33162;SDS011;29282;45.656;11.302;2022-11-09T04:44:26;4.55;;;3.33;;
33162;SDS011;29282;45.656;11.302;2022-11-09T04:46:53;4.38;;;3.25;;
33162;SDS011;29282;45.656;11.302;2022-11-09T04:49:18;6.80;;;3.70;;
33162;SDS011;29282;45.656;11.302;2022-11-09T04:51:44;5.45;;;3.45;;
33162;SDS011;29282;45.656;11.302;2022-11-09T04:54:09;4.55;;;3.38;;
33162;SDS011;29282;45.656;11.302;2022-11-09T04:56:35;5.05;;;3.10;;
33162;SDS011;29282;45.656;11.302;2022-11-09T04:59:01;4.60;;;3.53;;
33162;SDS011;29282;45.656;11.302;2022-11-09T05:01:26;4.95;;;3.28;;
33162;SDS011;29282;45.656;11.302;2022-11-09T05:03:52;4.68;;;3.47;;
33162;SDS011;29282;45.656;11.302;2022-11-09T05:06:17;5.68;;;3.67;;
33162;SDS011;29282;45.656;11.302;2022-11-09T05:09:07;4.93;;;3.25;;
33162;SDS011;29282;45.656;11.302;2022-11-09T05:11:33;6.38;;;3.40;;
33162;SDS011;29282;45.656;11.302;2022-11-09T05:13:59;4.38;;;3.25;;
33162;SDS011;29282;45.656;11.302;2022-11-09T05:16:26;5.53;;;3.33;;
33162;SDS011;29282;45.656;11.302;2022-11-09T05:18:53;4.25;;;3.35;;
33162;SDS011;29282;45.656;11.302;2022-11-09T05:21:18;5.03;;;3.58;;
33162;SDS011;29282;45.656;11.302;2022-11-09T05:23:44;7.95;;;3.40;;
33162;SDS011;29282;45.656;11.302;2022-11-09T05:28:55;10.60;;;4.03;;
33162;SDS011;29282;45.656;11.302;2022-11-09T05:31:23;8.20;;;3.80;;
33162;SDS011;29282;45.656;11.302;2022-11-09T05:33:50;10.98;;;4.32;;
33162;SDS011;29282;45.656;11.302;2022-11-09T05:36:16;17.10;;;4.18;;
33162;SDS011;29282;45.656;11.302;2022-11-09T05:38:42;4.72;;;3.55;;
33162;SDS011;29282;45.656;11.302;2022-11-09T05:41:08;8.05;;;3.85;;
33162;SDS011;29282;45.656;11.302;2022-11-09T05:43:34;5.72;;;3.67;;
33162;SDS011;29282;45.656;11.302;2022-11-09T05:46:00;8.05;;;4.25;;
33162;SDS011;29282;45.656;11.302;2022-11-09T05:48:25;6.60;;;3.92;;
33162;SDS011;29282;45.656;11.302;2022-11-09T05:50:50;6.15;;;3.30;;
33162;SDS011;29282;45.656;11.302;2022-11-09T05:53:16;10.52;;;4.03;;
33162;SDS011;29282;45.656;11.302;2022-11-09T05:55:41;5.07;;;3.25;;
33162;SDS011;29282;45.656;11.302;2022-11-09T05:58:07;5.90;;;3.35;;
33162;SDS011;29282;45.656;11.302;2022-11-09T06:00:33;6.05;;;3.40;;
33162;SDS011;29282;45.656;11.302;2022-11-09T06:03:09;10.30;;;3.55;;
33162;SDS011;29282;45.656;11.302;2022-11-09T06:05:36;7.53;;;3.97;;
33162;SDS011;29282;45.656;11.302;2022-11-09T06:08:03;7.63;;;3.75;;
33162;SDS011;29282;45.656;11.302;2022-11-09T06:10:30;10.00;;;3.88;;
33162;SDS011;29282;45.656;11.302;2022-11-09T06:12:56;12.90;;;4.03;;
33162;SDS011;29282;45.656;11.302;2022-11-09T06:15:22;10.68;;;3.70;;
33162;SDS011;29282;45.656;11.302;2022-11-09T06:17:54;10.95;;;3.92;;
33162;SDS011;29282;45.656;11.302;2022-11-09T06:20:21;11.38;;;3.75;;
33162;SDS011;29282;45.656;11.302;2022-11-09T06:22:54;8.07;;;3.83;;
33162;SDS011;29282;45.656;11.302;2022-11-09T06:25:21;10.77;;;3.53;;
33162;SDS011;29282;45.656;11.302;2022-11-09T06:27:47;8.52;;;3.63;;
33162;SDS011;29282;45.656;11.302;2022-11-09T06:30:13;6.75;;;4.03;;
33162;SDS011;29282;45.656;11.302;2022-11-09T06:32:39;6.00;;;3.40;;
33162;SDS011;29282;45.656;11.302;2022-11-09T06:35:06;7.97;;;3.58;;
33162;SDS011;29282;45.656;11.302;2022-11-09T06:37:32;6.30;;;3.50;;
33162;SDS011;29282;45.656;11.302;2022-11-09T06:39:58;6.50;;;3.83;;
33162;SDS011;29282;45.656;11.302;2022-11-09T06:42:24;7.38;;;3.67;;
33162;SDS011;29282;45.656;11.302;2022-11-09T06:44:49;8.32;;;3.55;;
33162;SDS011;29282;45.656;11.302;2022-11-09T06:47:15;7.93;;;3.47;;
33162;SDS011;29282;45.656;11.302;2022-11-09T06:49:40;4.82;;;3.58;;
33162;SDS011;29282;45.656;11.302;2022-11-09T06:52:06;8.85;;;3.80;;
33162;SDS011;29282;45.656;11.302;2022-11-09T06:54:32;6.68;;;3.33;;
33162;SDS011;29282;45.656;11.302;2022-11-09T06:56:58;7.85;;;3.83;;
33162;SDS011;29282;45.656;11.302;2022-11-09T06:59:24;6.22;;;3.28;;
33162;SDS011;29282;45.656;11.302;2022-11-09T07:01:50;6.18;;;3.20;;
33162;SDS011;29282;45.656;11.302;2022-11-09T07:04:15;7.53;;;3.47;;
33162;SDS011;29282;45.656;11.302;2022-11-09T07:06:41;7.57;;;3.83;;
33162;SDS011;29282;45.656;11.302;2022-11-09T07:09:07;7.13;;;3.60;;
33162;SDS011;29282;45.656;11.302;2022-11-09T07:11:34;11.55;;;3.10;;
33162;SDS011;29282;45.656;11.302;2022-11-09T07:14:00;7.07;;;3.38;;
33162;SDS011;29282;45.656;11.302;2022-11-09T07:16:27;8.13;;;3.55;;
33162;SDS011;29282;45.656;11.302;2022-11-09T07:18:53;8.48;;;3.40;;
33162;SDS011;29282;45.656;11.302;2022-11-09T07:21:19;6.50;;;3.63;;
33162;SDS011;29282;45.656;11.302;2022-11-09T07:23:45;8.98;;;3.90;;
33162;SDS011;29282;45.656;11.302;2022-11-09T07:26:11;11.48;;;3.38;;
33162;SDS011;29282;45.656;11.302;2022-11-09T07:28:37;7.60;;;3.50;;
33162;SDS011;29282;45.656;11.302;2022-11-09T07:31:03;8.32;;;3.83;;
33162;SDS011;29282;45.656;11.302;2022-11-09T07:33:28;7.25;;;3.40;;
33162;SDS011;29282;45.656;11.302;2022-11-09T07:35:57;9.32;;;3.80;;
33162;SDS011;29282;45.656;11.302;2022-11-09T07:38:23;9.00;;;3.67;;
33162;SDS011;29282;45.656;11.302;2022-11-09T07:40:49;10.30;;;3.65;;
33162;SDS011;29282;45.656;11.302;2022-11-09T07:43:17;21.15;;;4.40;;
33162;SDS011;29282;45.656;11.302;2022-11-09T07:45:43;16.70;;;4.63;;
33162;SDS011;29282;45.656;11.302;2022-11-09T07:48:09;10.60;;;4.07;;
33162;SDS011;29282;45.656;11.302;2022-11-09T07:50:36;9.23;;;3.50;;
33162;SDS011;29282;45.656;11.302;2022-11-09T07:53:02;10.27;;;3.85;;
33162;SDS011;29282;45.656;11.302;2022-11-09T07:55:31;10.68;;;3.97;;
33162;SDS011;29282;45.656;11.302;2022-11-09T07:57:58;16.38;;;4.45;;
33162;SDS011;29282;45.656;11.302;2022-11-09T08:00:25;18.42;;;4.68;;
33162;SDS011;29282;45.656;11.302;2022-11-09T08:02:53;10.15;;;3.63;;
33162;SDS011;29282;45.656;11.302;2022-11-09T08:05:19;9.48;;;3.78;;
33162;SDS011;29282;45.656;11.302;2022-11-09T08:07:45;11.20;;;3.75;;
33162;SDS011;29282;45.656;11.302;2022-11-09T08:10:11;8.00;;;3.45;;
33162;SDS011;29282;45.656;11.302;2022-11-09T08:12:37;14.10;;;3.47;;
33162;SDS011;29282;45.656;11.302;2022-11-09T08:15:03;11.75;;;4.10;;
33162;SDS011;29282;45.656;11.302;2022-11-09T08:17:29;10.70;;;3.63;;
33162;SDS011;29282;45.656;11.302;2022-11-09T08:19:55;11.35;;;4.03;;
33162;SDS011;29282;45.656;11.302;2022-11-09T08:22:20;10.00;;;3.63;;
33162;SDS011;29282;45.656;11.302;2022-11-09T08:24:46;10.35;;;4.10;;
33162;SDS011;29282;45.656;11.302;2022-11-09T08:27:14;14.30;;;3.65;;
33162;SDS011;29282;45.656;11.302;2022-11-09T08:29:40;6.68;;;3.50;;
33162;SDS011;29282;45.656;11.302;2022-11-09T08:32:05;15.02;;;3.50;;
33162;SDS011;29282;45.656;11.302;2022-11-09T08:34:31;6.85;;;3.03;;
33162;SDS011;29282;45.656;11.302;2022-11-09T08:36:59;10.77;;;3.90;;
33162;SDS011;29282;45.656;11.302;2022-11-09T08:39:26;11.10;;;3.85;;
33162;SDS011;29282;45.656;11.302;2022-11-09T08:41:51;11.40;;;3.90;;
33162;SDS011;29282;45.656;11.302;2022-11-09T08:44:17;5.50;;;3.53;;
33162;SDS011;29282;45.656;11.302;2022-11-09T08:46:43;11.80;;;3.65;;
33162;SDS011;29282;45.656;11.302;2022-11-09T08:49:08;5.13;;;3.38;;
33162;SDS011;29282;45.656;11.302;2022-11-09T08:51:34;7.50;;;3.50;;
33162;SDS011;29282;45.656;11.302;2022-11-09T08:53:59;6.47;;;3.72;;
33162;SDS011;29282;45.656;11.302;2022-11-09T08:56:25;7.78;;;3.38;;
33162;SDS011;29282;45.656;11.302;2022-11-09T08:58:50;5.78;;;3.42;;
33162;SDS011;29282;45.656;11.302;2022-11-09T09:01:16;9.10;;;3.75;;
33162;SDS011;29282;45.656;11.302;2022-11-09T09:03:41;10.70;;;3.55;;
33162;SDS011;29282;45.656;11.302;2022-11-09T09:06:07;8.38;;;3.40;;
33162;SDS011;29282;45.656;11.302;2022-11-09T09:08:33;7.88;;;3.45;;
33162;SDS011;29282;45.656;11.302;2022-11-09T09:11:05;8.05;;;3.85;;
33162;SDS011;29282;45.656;11.302;2022-11-09T09:13:31;7.93;;;3.72;;
33162;SDS011;29282;45.656;11.302;2022-11-09T09:15:57;9.15;;;4.03;;
33162;SDS011;29282;45.656;11.302;2022-11-09T09:18:23;6.70;;;3.42;;
33162;SDS011;29282;45.656;11.302;2022-11-09T09:20:48;7.13;;;3.20;;
33162;SDS011;29282;45.656;11.302;2022-11-09T09:23:15;6.60;;;3.15;;
33162;SDS011;29282;45.656;11.302;2022-11-09T09:25:41;7.05;;;3.90;;
33162;SDS011;29282;45.656;11.302;2022-11-09T09:28:07;7.88;;;3.20;;
33162;SDS011;29282;45.656;11.302;2022-11-09T09:30:33;7.18;;;3.42;;
33162;SDS011;29282;45.656;11.302;2022-11-09T09:32:59;9.77;;;3.33;;
33162;SDS011;29282;45.656;11.302;2022-11-09T09:35:25;7.90;;;3.47;;
33162;SDS011;29282;45.656;11.302;2022-11-09T09:37:51;6.00;;;3.50;;
33162;SDS011;29282;45.656;11.302;2022-11-09T09:40:37;9.00;;;3.60;;
33162;SDS011;29282;45.656;11.302;2022-11-09T09:43:22;8.30;;;3.97;;
33162;SDS011;29282;45.656;11.302;2022-11-09T09:45:57;6.68;;;3.50;;
33162;SDS011;29282;45.656;11.302;2022-11-09T09:48:37;6.40;;;3.50;;
33162;SDS011;29282;45.656;11.302;2022-11-09T09:51:21;7.80;;;3.30;;
33162;SDS011;29282;45.656;11.302;2022-11-09T09:53:55;5.25;;;3.75;;
33162;SDS011;29282;45.656;11.302;2022-11-09T09:56:25;6.93;;;4.05;;
33162;SDS011;29282;45.656;11.302;2022-11-09T09:59:02;6.82;;;3.22;;
33162;SDS011;29282;45.656;11.302;2022-11-09T10:01:41;5.90;;;3.22;;
33162;SDS011;29282;45.656;11.302;2022-11-09T10:04:21;7.95;;;3.78;;
33162;SDS011;29282;45.656;11.302;2022-11-09T10:07:10;8.90;;;3.55;;
33162;SDS011;29282;45.656;11.302;2022-11-09T10:15:24;7.05;;;3.10;;
33162;SDS011;29282;45.656;11.302;2022-11-09T10:26:22;6.78;;;3.33;;
33162;SDS011;29282;45.656;11.302;2022-11-09T10:28:57;6.85;;;3.05;;
33162;SDS011;29282;45.656;11.302;2022-11-09T10:31:25;4.38;;;3.03;;
33162;SDS011;29282;45.656;11.302;2022-11-09T10:33:58;5.65;;;3.15;;
33162;SDS011;29282;45.656;11.302;2022-11-09T10:36:38;6.00;;;2.88;;
33162;SDS011;29282;45.656;11.302;2022-11-09T10:39:14;6.30;;;3.40;;
33162;SDS011;29282;45.656;11.302;2022-11-09T10:41:42;6.47;;;3.50;;
33162;SDS011;29282;45.656;11.302;2022-11-09T10:44:12;3.88;;;3.00;;
33162;SDS011;29282;45.656;11.302;2022-11-09T10:49:28;7.22;;;3.33;;
33162;SDS011;29282;45.656;11.302;2022-11-09T10:51:54;8.23;;;3.47;;
33162;SDS011;29282;45.656;11.302;2022-11-09T10:54:20;4.95;;;3.13;;
33162;SDS011;29282;45.656;11.302;2022-11-09T10:57:07;5.63;;;3.40;;
33162;SDS011;29282;45.656;11.302;2022-11-09T11:04:48;7.07;;;3.33;;
33162;SDS011;29282;45.656;11.302;2022-11-09T11:07:14;5.20;;;3.33;;
33162;SDS011;29282;45.656;11.302;2022-11-09T11:09:44;4.65;;;3.15;;
33162;SDS011;29282;45.656;11.302;2022-11-09T11:12:14;4.22;;;2.95;;
33162;SDS011;29282;45.656;11.302;2022-11-09T11:14:41;6.90;;;3.58;;
33162;SDS011;29282;45.656;11.302;2022-11-09T11:17:21;7.88;;;3.25;;
33162;SDS011;29282;45.656;11.302;2022-11-09T11:19:48;4.53;;;3.13;;
33162;SDS011;29282;45.656;11.302;2022-11-09T11:22:16;6.55;;;3.78;;
33162;SDS011;29282;45.656;11.302;2022-11-09T11:24:57;6.13;;;3.17;;
33162;SDS011;29282;45.656;11.302;2022-11-09T11:33:01;6.70;;;3.47;;
33162;SDS011;29282;45.656;11.302;2022-11-09T11:35:42;5.05;;;3.05;;
33162;SDS011;29282;45.656;11.302;2022-11-09T11:38:31;4.75;;;3.00;;
33162;SDS011;29282;45.656;11.302;2022-11-09T11:51:51;5.15;;;3.33;;
33162;SDS011;29282;45.656;11.302;2022-11-09T12:00:03;3.42;;;2.60;;
33162;SDS011;29282;45.656;11.302;2022-11-09T12:08:33;5.22;;;3.38;;
33162;SDS011;29282;45.656;11.302;2022-11-09T12:19:49;5.47;;;3.42;;
33162;SDS011;29282;45.656;11.302;2022-11-09T12:22:40;3.93;;;3.20;;
33162;SDS011;29282;45.656;11.302;2022-11-09T12:25:26;7.00;;;3.38;;
33162;SDS011;29282;45.656;11.302;2022-11-09T12:31:35;6.40;;;3.33;;
33162;SDS011;29282;45.656;11.302;2022-11-09T12:33:59;4.18;;;2.90;;
33162;SDS011;29282;45.656;11.302;2022-11-09T12:39:06;5.47;;;3.25;;
33162;SDS011;29282;45.656;11.302;2022-11-09T12:41:41;5.95;;;3.13;;
33162;SDS011;29282;45.656;11.302;2022-11-09T12:47:14;7.85;;;3.45;;
33162;SDS011;29282;45.656;11.302;2022-11-09T12:49:46;6.80;;;3.30;;
33162;SDS011;29282;45.656;11.302;2022-11-09T12:52:13;4.97;;;3.40;;
33162;SDS011;29282;45.656;11.302;2022-11-09T12:54:43;4.95;;;3.10;;
33162;SDS011;29282;45.656;11.302;2022-11-09T12:57:16;4.75;;;3.20;;
33162;SDS011;29282;45.656;11.302;2022-11-09T12:59:54;3.92;;;3.05;;
33162;SDS011;29282;45.656;11.302;2022-11-09T13:02:28;5.53;;;3.30;;
33162;SDS011;29282;45.656;11.302;2022-11-09T13:05:25;5.22;;;3.20;;
33162;SDS011;29282;45.656;11.302;2022-11-09T13:08:03;6.68;;;3.17;;
33162;SDS011;29282;45.656;11.302;2022-11-09T13:10:34;4.82;;;3.10;;
33162;SDS011;29282;45.656;11.302;2022-11-09T13:16:02;5.30;;;3.45;;
33162;SDS011;29282;45.656;11.302;2022-11-09T13:26:54;5.13;;;3.53;;
33162;SDS011;29282;45.656;11.302;2022-11-09T13:32:04;5.25;;;3.80;;
33162;SDS011;29282;45.656;11.302;2022-11-09T13:34:43;6.03;;;3.60;;
33162;SDS011;29282;45.656;11.302;2022-11-09T13:43:05;6.30;;;3.47;;
33162;SDS011;29282;45.656;11.302;2022-11-09T13:46:02;22.48;;;3.97;;
33162;SDS011;29282;45.656;11.302;2022-11-09T13:48:50;6.05;;;3.63;;
33162;SDS011;29282;45.656;11.302;2022-11-09T14:01:53;10.57;;;3.80;;
33162;SDS011;29282;45.656;11.302;2022-11-09T14:12:44;9.88;;;3.28;;
33162;SDS011;29282;45.656;11.302;2022-11-09T14:23:35;7.25;;;3.30;;
33162;SDS011;29282;45.656;11.302;2022-11-09T14:26:21;7.07;;;3.83;;
33162;SDS011;29282;45.656;11.302;2022-11-09T14:28:48;6.93;;;3.42;;
33162;SDS011;29282;45.656;11.302;2022-11-09T14:31:24;6.97;;;3.88;;
33162;SDS011;29282;45.656;11.302;2022-11-09T14:33:57;7.22;;;3.47;;
33162;SDS011;29282;45.656;11.302;2022-11-09T14:36:25;5.07;;;3.17;;
33162;SDS011;29282;45.656;11.302;2022-11-09T14:38:51;6.00;;;3.47;;
33162;SDS011;29282;45.656;11.302;2022-11-09T14:41:21;6.78;;;3.47;;
33162;SDS011;29282;45.656;11.302;2022-11-09T14:43:49;8.57;;;3.67;;
33162;SDS011;29282;45.656;11.302;2022-11-09T14:46:20;5.13;;;3.30;;
33162;SDS011;29282;45.656;11.302;2022-11-09T14:48:52;7.07;;;3.42;;
33162;SDS011;29282;45.656;11.302;2022-11-09T14:51:26;6.57;;;3.15;;
33162;SDS011;29282;45.656;11.302;2022-11-09T14:53:55;5.82;;;3.00;;
33162;SDS011;29282;45.656;11.302;2022-11-09T14:56:22;6.30;;;3.70;;
33162;SDS011;29282;45.656;11.302;2022-11-09T14:58:48;4.18;;;3.10;;
33162;SDS011;29282;45.656;11.302;2022-11-09T15:06:30;6.80;;;3.25;;
33162;SDS011;29282;45.656;11.302;2022-11-09T15:08:58;9.57;;;3.33;;
33162;SDS011;29282;45.656;11.302;2022-11-09T15:11:31;9.68;;;3.30;;
33162;SDS011;29282;45.656;11.302;2022-11-09T15:13:58;8.10;;;3.85;;
33162;SDS011;29282;45.656;11.302;2022-11-09T15:16:27;7.85;;;3.63;;
33162;SDS011;29282;45.656;11.302;2022-11-09T15:18:55;4.72;;;3.40;;
33162;SDS011;29282;45.656;11.302;2022-11-09T15:21:31;5.38;;;3.42;;
33162;SDS011;29282;45.656;11.302;2022-11-09T15:24:10;4.97;;;3.33;;
33162;SDS011;29282;45.656;11.302;2022-11-09T15:26:40;4.28;;;3.17;;
33162;SDS011;29282;45.656;11.302;2022-11-09T15:29:27;6.85;;;3.20;;
33162;SDS011;29282;45.656;11.302;2022-11-09T15:32:18;5.93;;;3.80;;
33162;SDS011;29282;45.656;11.302;2022-11-09T15:39:55;10.68;;;3.53;;
33162;SDS011;29282;45.656;11.302;2022-11-09T15:42:22;5.78;;;3.28;;
33162;SDS011;29282;45.656;11.302;2022-11-09T15:44:56;5.50;;;3.50;;
33162;SDS011;29282;45.656;11.302;2022-11-09T15:47:29;7.05;;;3.50;;
33162;SDS011;29282;45.656;11.302;2022-11-09T15:50:03;6.40;;;3.72;;
33162;SDS011;29282;45.656;11.302;2022-11-09T15:52:31;7.15;;;3.55;;
33162;SDS011;29282;45.656;11.302;2022-11-09T15:54:57;4.57;;;3.13;;
33162;SDS011;29282;45.656;11.302;2022-11-09T15:57:22;5.53;;;3.38;;
33162;SDS011;29282;45.656;11.302;2022-11-09T15:59:49;5.75;;;3.35;;
33162;SDS011;29282;45.656;11.302;2022-11-09T16:02:15;5.43;;;3.40;;
33162;SDS011;29282;45.656;11.302;2022-11-09T16:04:43;5.88;;;3.55;;
33162;SDS011;29282;45.656;11.302;2022-11-09T16:07:09;8.27;;;3.67;;
33162;SDS011;29282;45.656;11.302;2022-11-09T16:09:38;5.03;;;3.25;;
33162;SDS011;29282;45.656;11.302;2022-11-09T16:12:05;5.65;;;3.58;;
33162;SDS011;29282;45.656;11.302;2022-11-09T16:14:31;6.47;;;3.30;;
33162;SDS011;29282;45.656;11.302;2022-11-09T16:16:56;5.53;;;3.50;;
33162;SDS011;29282;45.656;11.302;2022-11-09T16:19:24;4.80;;;3.42;;
33162;SDS011;29282;45.656;11.302;2022-11-09T16:21:51;13.00;;;3.60;;
33162;SDS011;29282;45.656;11.302;2022-11-09T16:24:17;6.60;;;3.47;;
33162;SDS011;29282;45.656;11.302;2022-11-09T16:26:43;7.50;;;3.40;;
33162;SDS011;29282;45.656;11.302;2022-11-09T16:29:09;4.72;;;3.63;;
33162;SDS011;29282;45.656;11.302;2022-11-09T16:31:35;5.32;;;3.92;;
33162;SDS011;29282;45.656;11.302;2022-11-09T16:34:01;7.18;;;3.72;;
33162;SDS011;29282;45.656;11.302;2022-11-09T16:36:26;7.82;;;3.75;;
33162;SDS011;29282;45.656;11.302;2022-11-09T16:38:52;5.03;;;3.60;;
33162;SDS011;29282;45.656;11.302;2022-11-09T16:41:19;12.27;;;3.63;;
33162;SDS011;29282;45.656;11.302;2022-11-09T16:43:47;11.20;;;3.75;;
33162;SDS011;29282;45.656;11.302;2022-11-09T16:46:18;6.43;;;3.92;;
33162;SDS011;29282;45.656;11.302;2022-11-09T16:48:46;4.90;;;3.65;;
33162;SDS011;29282;45.656;11.302;2022-11-09T16:51:14;5.10;;;3.58;;
33162;SDS011;29282;45.656;11.302;2022-11-09T16:53:40;7.78;;;3.95;;
33162;SDS011;29282;45.656;11.302;2022-11-09T16:56:06;8.52;;;3.60;;
33162;SDS011;29282;45.656;11.302;2022-11-09T16:58:31;5.25;;;3.75;;